Terminal Aerodrome Forecast
Issued by NWS

Home | Current Version | Previous Version | Text Only | Print | Product List | Glossary On
Versions: 1 2 3 4 5 6 7 8 9 10 11 12 13 14 15 16
000
FTUS41 KBTV 221729
TAFMPV
TAF
KMPV 221729Z 2218/2318 VRB03KT 6SM BR BKN020 OVC035
     FM230600 15005KT 4SM -SN BR OVC015
     FM231200 17003KT 2SM -RASN BR OVC015=

USA.gov is the U.S. government's official web portal to all federal, state and local government web resources and services.